Terminal Aerodrome Forecast
Issued by NWS

Home | Current Version | Previous Version | Graphics & Text | Print | Product List | Glossary Off
Versions: 1 2 3 4 5 6 7 8 9 10 11 12 13 14

284
FTUS43 KOAX 111120
TAFCDR
TAF
KCDR 111120Z 1112/1212 30016G28KT P6SM BKN150
     FM111600 34022G35KT P6SM BKN150
     FM120000 27008KT P6SM SCT150=

USA.gov is the U.S. government's official web portal to all federal, state and local government web resources and services.